createdAt,value
2023-01-30T00:02:33.631Z,101256.25
2023-01-30T00:07:35.044Z,101252.84
2023-01-30T00:12:36.437Z,101238.44
2023-01-30T00:17:37.835Z,101233.41
2023-01-30T00:22:42.367Z,101238.34
2023-01-30T00:27:45.583Z,101239.06
2023-01-30T00:32:47.082Z,101266.66
2023-01-30T00:37:48.519Z,101299.31
2023-01-30T00:43:08.864Z,101320.50
2023-01-30T00:48:10.454Z,101321.81
2023-01-30T00:53:14.024Z,101324.56
2023-01-30T00:58:15.456Z,101319.63
2023-01-30T01:03:17.645Z,101312.97
2023-01-30T01:08:20.090Z,101312.69
2023-01-30T01:13:21.788Z,101316.59
2023-01-30T01:18:23.292Z,101337.28
2023-01-30T01:23:24.721Z,101340.75
2023-01-30T01:28:26.107Z,101350.97
2023-01-30T01:33:28.511Z,101325.75
2023-01-30T01:38:30.289Z,101327.16
2023-01-30T01:43:37.397Z,101322.13
2023-01-30T01:48:51.953Z,101292.00
2023-01-30T01:53:58.808Z,101273.47
2023-01-30T01:59:13.732Z,101263.19
2023-01-30T02:04:35.813Z,101240.53
2023-01-30T02:09:37.587Z,101274.16
2023-01-30T02:14:40.400Z,101255.41
2023-01-30T02:19:51.079Z,101209.34
2023-01-30T02:25:21.119Z,101208.47
2023-01-30T02:30:44.471Z,101216.94
2023-01-30T02:36:17.034Z,101212.97
2023-01-30T02:41:37.307Z,101198.06
2023-01-30T02:46:58.990Z,101144.53
2023-01-30T02:52:03.385Z,101100.09
2023-01-30T02:57:18.922Z,101078.22
2023-01-30T03:02:29.566Z,101080.06
2023-01-30T03:08:14.212Z,101065.25
2023-01-30T03:13:40.641Z,101008.81
2023-01-30T03:18:43.418Z,101020.09
2023-01-30T03:23:48.369Z,101026.09
2023-01-30T03:28:51.139Z,101056.38
2023-01-30T03:33:52.753Z,101057.97
2023-01-30T03:38:54.246Z,101093.78
2023-01-30T03:43:55.716Z,101094.59
2023-01-30T03:48:57.094Z,101092.38
2023-01-30T03:53:58.569Z,101098.75
2023-01-30T03:59:00.032Z,101084.03
2023-01-30T04:04:01.421Z,101082.69
2023-01-30T04:09:02.884Z,101075.31
2023-01-30T04:14:04.246Z,101092.13
2023-01-30T04:19:05.736Z,101092.19
2023-01-30T04:24:07.319Z,101093.88
2023-01-30T04:29:08.919Z,101077.22
2023-01-30T04:34:10.328Z,101082.28
2023-01-30T04:39:11.732Z,101068.13
2023-01-30T04:44:13.141Z,101073.25
2023-01-30T04:49:14.606Z,101075.81
2023-01-30T04:54:16.122Z,101090.19
2023-01-30T04:59:17.583Z,101090.13
2023-01-30T05:04:19.010Z,101063.28
2023-01-30T05:09:20.435Z,101064.03
2023-01-30T05:14:21.884Z,101061.53
2023-01-30T05:19:23.368Z,101056.59
2023-01-30T05:24:24.870Z,101039.81
2023-01-30T05:29:26.251Z,101032.34
2023-01-30T05:34:27.709Z,101051.66
2023-01-30T05:39:29.177Z,101048.31
2023-01-30T05:44:31.110Z,101028.19
2023-01-30T05:49:32.527Z,101035.75
2023-01-30T05:54:34.893Z,101036.63
2023-01-30T05:59:36.370Z,101041.63
2023-01-30T06:04:37.886Z,101026.59
2023-01-30T06:09:39.399Z,101025.84
2023-01-30T06:14:40.939Z,101037.59
2023-01-30T06:19:42.352Z,101010.75
2023-01-30T06:24:43.780Z,101010.78
2023-01-30T06:29:45.255Z,101009.13
2023-01-30T06:34:46.708Z,101000.72
2023-01-30T06:39:48.145Z,100996.56
2023-01-30T06:44:49.714Z,100993.31
2023-01-30T06:49:51.135Z,101000.78
2023-01-30T06:54:52.636Z,101004.22
2023-01-30T06:59:54.065Z,101018.47
2023-01-30T07:04:55.576Z,101046.16
2023-01-30T07:10:07.381Z,101049.56
2023-01-30T07:15:09.861Z,101058.03
2023-01-30T07:20:11.858Z,101058.91
2023-01-30T07:25:13.319Z,101080.63
2023-01-30T07:30:15.090Z,101079.81
2023-01-30T07:35:16.607Z,101073.91
2023-01-30T07:40:19.217Z,101080.66
2023-01-30T07:45:20.712Z,101069.75
2023-01-30T07:50:22.176Z,101063.81
2023-01-30T07:55:23.871Z,101036.06
2023-01-30T08:00:25.779Z,101032.84
2023-01-30T08:05:27.265Z,101025.50
2023-01-30T08:10:28.849Z,101024.66
2023-01-30T08:15:31.892Z,101007.88
2023-01-30T08:20:33.691Z,101017.19
2023-01-30T08:25:35.875Z,101021.44
2023-01-30T08:30:37.452Z,101028.25
2023-01-30T08:35:40.459Z,101037.47
2023-01-30T08:40:42.591Z,101030.84
2023-01-30T08:45:44.046Z,101036.69
2023-01-30T08:50:45.613Z,101031.50
2023-01-30T08:55:51.293Z,101004.00
2023-01-30T09:00:52.858Z,100997.19
2023-01-30T09:05:56.119Z,100991.44
2023-01-30T09:11:02.230Z,101003.13
2023-01-30T09:16:06.339Z,100997.41
2023-01-30T09:21:09.521Z,100980.72
2023-01-30T09:26:11.166Z,100985.84
2023-01-30T09:31:13.037Z,100977.78
2023-01-30T09:36:14.815Z,100988.75
2023-01-30T09:41:47.271Z,100973.69
2023-01-30T09:47:00.959Z,100973.78
2023-01-30T09:52:29.691Z,100963.72
2023-01-30T09:57:31.263Z,100947.72
2023-01-30T10:02:44.575Z,100967.91
2023-01-30T10:08:06.786Z,100967.94
2023-01-30T10:13:39.094Z,100969.59
2023-01-30T10:18:49.590Z,100973.84
2023-01-30T10:24:06.508Z,100960.00
2023-01-30T10:29:22.715Z,100957.78
2023-01-30T10:34:38.805Z,100951.00
2023-01-30T10:39:59.281Z,100945.72
2023-01-30T10:45:02.976Z,100931.28
2023-01-30T10:50:18.767Z,100942.13
2023-01-30T10:55:36.377Z,100921.25
2023-01-30T11:01:07.126Z,100939.59
2023-01-30T11:06:16.593Z,100941.25
2023-01-30T11:11:30.362Z,100950.47
2023-01-30T11:16:40.382Z,100951.34
2023-01-30T11:21:44.979Z,100934.53
2023-01-30T11:26:48.432Z,100942.09
2023-01-30T11:31:51.792Z,100947.28
2023-01-30T11:36:53.420Z,100932.03
2023-01-30T11:41:58.491Z,100934.59
2023-01-30T11:47:15.743Z,100938.72
2023-01-30T11:52:19.114Z,100932.91
2023-01-30T11:57:21.054Z,100926.25
2023-01-30T12:02:27.119Z,100929.59
2023-01-30T12:07:30.743Z,100950.47
2023-01-30T12:12:54.866Z,100922.69
2023-01-30T12:18:10.650Z,100926.88
2023-01-30T12:23:34.232Z,100935.19
2023-01-30T12:29:03.480Z,100928.44
2023-01-30T12:34:05.220Z,100917.56
2023-01-30T12:39:20.492Z,100934.28
2023-01-30T12:44:59.836Z,100925.00
2023-01-30T12:50:21.251Z,100945.03
2023-01-30T12:55:31.794Z,100940.00
2023-01-30T13:00:54.823Z,100954.19
2023-01-30T13:06:24.320Z,100969.31
2023-01-30T13:11:45.079Z,100974.25
2023-01-30T13:17:20.447Z,100997.81
2023-01-30T13:22:30.797Z,100981.88
2023-01-30T13:27:35.452Z,100984.47
2023-01-30T13:32:52.040Z,100986.94
2023-01-30T13:37:55.276Z,100977.75
2023-01-30T13:43:02.312Z,100996.13
2023-01-30T13:48:12.836Z,101012.03
2023-01-30T13:53:22.837Z,101017.88
2023-01-30T13:58:46.310Z,101042.22
2023-01-30T14:03:47.861Z,101038.81
2023-01-30T14:09:01.380Z,101049.69
2023-01-30T14:14:23.111Z,101064.75
2023-01-30T14:19:38.927Z,101073.94
2023-01-30T14:24:40.566Z,101060.50
2023-01-30T14:29:41.973Z,101068.91
2023-01-30T14:35:10.610Z,101066.38
2023-01-30T14:40:21.418Z,101074.84
2023-01-30T14:45:46.355Z,101077.41
2023-01-30T14:50:48.071Z,101078.34
2023-01-30T14:56:00.630Z,101075.06
2023-01-30T15:01:02.267Z,101084.34
2023-01-30T15:06:06.725Z,101074.41
2023-01-30T15:11:21.129Z,101079.47
2023-01-30T15:17:05.754Z,101085.34
2023-01-30T15:22:38.014Z,101112.38
2023-01-30T15:28:01.909Z,101110.88
2023-01-30T15:33:22.785Z,101110.00
2023-01-30T15:38:33.809Z,101124.22
2023-01-30T15:44:00.007Z,101113.25
2023-01-30T15:49:04.371Z,101121.59
2023-01-30T15:54:11.133Z,101126.63
2023-01-30T15:59:28.835Z,101132.53
2023-01-30T16:04:30.682Z,101140.06
2023-01-30T16:09:32.148Z,101151.81
2023-01-30T16:14:34.590Z,101165.16
2023-01-30T16:19:39.008Z,101174.28
2023-01-30T16:24:45.986Z,101172.47
2023-01-30T16:29:53.148Z,101179.16
2023-01-30T16:35:17.414Z,101162.38
2023-01-30T16:40:24.858Z,101170.78
2023-01-30T16:45:35.591Z,101180.94
2023-01-30T16:50:37.086Z,101202.81
2023-01-30T16:55:38.753Z,101207.94
2023-01-30T17:00:40.804Z,101210.53
2023-01-30T17:05:45.915Z,101230.69
2023-01-30T17:10:54.920Z,101232.41
2023-01-30T17:16:18.254Z,101229.94
2023-01-30T17:21:20.845Z,101229.84
2023-01-30T17:26:22.811Z,101212.22
2023-01-30T17:31:24.607Z,101206.28
2023-01-30T17:36:28.956Z,101228.09
2023-01-30T17:41:32.478Z,101221.50
2023-01-30T17:46:40.980Z,101225.84
2023-01-30T17:51:43.211Z,101250.31
2023-01-30T17:56:46.898Z,101262.19
2023-01-30T18:01:50.588Z,101264.78
2023-01-30T18:07:03.634Z,101279.94
2023-01-30T18:12:05.278Z,101279.13
2023-01-30T18:17:06.781Z,101292.66
2023-01-30T18:22:08.265Z,101301.94
2023-01-30T18:27:09.821Z,101299.44
2023-01-30T18:32:11.245Z,101309.59
2023-01-30T18:37:12.704Z,101320.56
2023-01-30T18:42:14.169Z,101325.63
2023-01-30T18:47:15.714Z,101336.53
2023-01-30T18:52:17.119Z,101341.59
2023-01-30T18:57:18.573Z,101351.72
2023-01-30T19:02:20.046Z,101348.38
2023-01-30T19:07:21.565Z,101365.22
2023-01-30T19:12:42.387Z,101375.38
2023-01-30T19:17:43.875Z,101384.63
2023-01-30T19:22:45.371Z,101400.63
2023-01-30T19:27:46.867Z,101409.00
2023-01-30T19:32:52.012Z,101408.19
2023-01-30T19:37:55.139Z,101394.72
2023-01-30T19:42:59.601Z,101400.63
2023-01-30T19:48:08.617Z,101410.66
2023-01-30T19:53:10.096Z,101415.69
2023-01-30T19:58:12.157Z,101411.53
2023-01-30T20:03:16.324Z,101418.25
2023-01-30T20:08:31.648Z,101411.44
2023-01-30T20:13:39.092Z,101431.56
2023-01-30T20:18:41.262Z,101423.16
2023-01-30T20:23:46.695Z,101438.34
2023-01-30T20:28:49.395Z,101441.72
2023-01-30T20:33:51.370Z,101439.25
2023-01-30T20:38:53.792Z,101437.56
2023-01-30T20:43:59.682Z,101461.13
2023-01-30T20:49:01.684Z,101468.75
2023-01-30T20:54:09.235Z,101467.06
2023-01-30T20:59:16.673Z,101469.59
2023-01-30T21:04:19.212Z,101483.81
2023-01-30T21:09:23.397Z,101482.94
2023-01-30T21:14:26.596Z,101486.28
2023-01-30T21:19:28.227Z,101488.81
2023-01-30T21:24:30.558Z,101486.19
2023-01-30T21:29:32.582Z,101494.53
2023-01-30T21:34:35.208Z,101495.38
2023-01-30T21:39:55.556Z,101505.44
2023-01-30T21:44:58.341Z,101504.59
2023-01-30T21:49:59.850Z,101520.63
2023-01-30T21:55:01.260Z,101519.03
2023-01-30T22:00:03.507Z,101518.19
2023-01-30T22:05:05.837Z,101524.03
2023-01-30T22:10:07.785Z,101530.78
2023-01-30T22:15:09.603Z,101539.13
2023-01-30T22:20:11.841Z,101539.94
2023-01-30T22:25:13.276Z,101545.00
2023-01-30T22:30:14.931Z,101554.28
2023-01-30T22:35:16.457Z,101552.56
2023-01-30T22:40:18.014Z,101549.22
2023-01-30T22:45:19.922Z,101549.19
2023-01-30T22:50:21.564Z,101546.66
2023-01-30T22:55:23.173Z,101551.72
2023-01-30T23:00:24.603Z,101550.00
2023-01-30T23:05:26.010Z,101554.25
2023-01-30T23:10:27.418Z,101546.72
2023-01-30T23:15:28.847Z,101553.50
2023-01-30T23:20:30.467Z,101554.38
2023-01-30T23:25:31.959Z,101549.41
2023-01-30T23:30:33.505Z,101548.56
2023-01-30T23:35:35.427Z,101541.78
2023-01-30T23:40:36.939Z,101539.19
2023-01-30T23:45:38.876Z,101534.09
2023-01-30T23:50:42.127Z,101544.97
2023-01-30T23:55:53.202Z,101539.13
